Time;durP1;ratioP1;P1;durP2;ratioP2;P2;SDS_P1;SDS_P2;PMS_P1;PMS_P2;Temp;Humidity;BMP_temperature;BMP_pressure;BME280_temperature;BME280_humidity;BME280_pressure;Samples;Min_cycle;Max_cycle;Signal;HPM_P1;HPM_P2
2021/08/19 00:01:27;;;;;;;;;;;;;;;;;;5085409;28;980;-91
2021/08/19 00:03:52;;;;;;;;;;;;;;;;;;5081935;28;1203;-91
2021/08/19 00:06:18;;;;;;;;;;;;;;;;;;5082281;28;1195;-91
2021/08/19 00:08:43;;;;;;;;;;;;;;;;;;5080988;28;1632;-91
2021/08/19 00:11:08;;;;;;;;;;;;;;;;;;5081965;28;1338;-90
2021/08/19 00:13:33;;;;;;;;;;;;;;;;;;5081667;28;1600;-90
2021/08/19 00:15:59;;;;;;;;;;;;;;;;;;5082423;28;1202;-90
2021/08/19 00:18:24;;;;;;;;;;;;;;;;;;5081872;28;1910;-91
2021/08/19 00:20:49;;;;;;;;;;;;;;;;;;5063026;28;1617;-90
2021/08/19 00:23:14;;;;;;;;;;;;;;;;;;5063299;28;1180;-91
2021/08/19 00:25:40;;;;;;;;;;;;;;;;;;5080045;28;1223;-91
2021/08/19 00:28:05;;;;;;;;;;;;;;;;;;5081022;28;1576;-90
2021/08/19 00:30:30;;;;;;;;;;;;;;;;;;5082932;28;1214;-90
2021/08/19 00:32:55;;;;;;;;;;;;;;;;;;5062094;28;1172;-90
2021/08/19 00:35:20;;;;;;;;;;;;;;;;;;5080480;28;1549;-90
2021/08/19 00:37:45;;;;;;;;;;;;;;;;;;5081875;28;1914;-90
2021/08/19 00:40:11;;;;;;;;;;;;;;;;;;5083671;28;1223;-90
2021/08/19 00:42:36;;;;;;;;;;;;;;;;;;5061947;28;1652;-91
2021/08/19 00:45:01;;;;;;;;;;;;;;;;;;5078681;28;1836;-91
2021/08/19 00:47:27;;;;;;;;;;;;;;;;;;5078075;28;1171;-91
2021/08/19 00:49:52;;;;;;;;;;;;;;;;;;5063145;28;1378;-91
2021/08/19 00:52:17;;;;;;;;;;;;;;;;;;5080115;28;1584;-91
2021/08/19 00:54:42;;;;;;;;;;;;;;;;;;5080522;28;1236;-91
2021/08/19 00:57:08;;;;;;;;;;;;;;;;;;5061882;28;1951;-91
2021/08/19 00:59:34;;;;;;;;;;;;;;;;;;5075576;28;1556;-91
2021/08/19 01:01:59;;;;;;;;;;;;;;;;;;5079763;28;1132;-91
2021/08/19 01:04:24;;;;;;;;;;;;;;;;;;5075080;28;1561;-91
2021/08/19 01:06:49;;;;;;;;;;;;;;;;;;5079499;28;1132;-91
2021/08/19 01:09:15;;;;;;;;;;;;;;;;;;5081468;28;1332;-91
2021/08/19 01:11:41;;;;;;;;;;;;;;;;;;5062233;28;1026;-91
2021/08/19 01:14:08;;;;;;;;;;;;;;;;;;5078327;28;1570;-91
2021/08/19 01:16:33;;;;;;;;;;;;;;;;;;5080567;28;1878;-91
2021/08/19 01:18:58;;;;;;;;;;;;;;;;;;5080973;28;996;-91
2021/08/19 01:21:23;;;;;;;;;;;;;;;;;;5083538;28;1561;-91
2021/08/19 01:23:48;;;;;;;;;;;;;;;;;;5080177;28;1354;-91
2021/08/19 01:26:18;;;;;;;;;;;;;;;;;;5081498;28;1292;-91
2021/08/19 01:28:43;;;;;;;;;;;;;;;;;;5083654;28;1592;-91
2021/08/19 01:31:09;;;;;;;;;;;;;;;;;;5081459;28;1549;-91
2021/08/19 01:33:35;;;;;;;;;;;;;;;;;;5063019;28;1223;-91
2021/08/19 01:36:00;;;;;;;;;;;;;;;;;;5080219;28;1293;-91
2021/08/19 01:38:31;;;;;;;;;;;;;;;;;;5080479;28;1961;-91
2021/08/19 01:40:57;;;;;;;;;;;;;;;;;;5082193;28;1553;-91
2021/08/19 01:43:24;;;;;;;;;;;;;;;;;;5081940;28;1745;-91
2021/08/19 01:45:49;;;;;;;;;;;;;;;;;;5079479;28;1196;-91
2021/08/19 01:48:15;;;;;;;;;;;;;;;;;;5082292;28;1220;-90
2021/08/19 01:50:40;;;;;;;;;;;;;;;;;;5084286;28;1541;-91
2021/08/19 01:53:05;;;;;;;;;;;;;;;;;;5086510;28;1326;-90
2021/08/19 01:55:30;;;;;;;;;;;;;;;;;;5083722;28;1367;-91
2021/08/19 01:57:55;;;;;;;;;;;;;;;;;;5083517;28;1937;-92
2021/08/19 02:00:20;;;;;;;;;;;;;;;;;;5086965;28;1172;-91
2021/08/19 02:02:46;;;;;;;;;;;;;;;;;;5083313;28;1164;-91
2021/08/19 02:05:11;;;;;;;;;;;;;;;;;;5093629;22;3589;-57
2021/08/19 02:07:36;;;;;;;;;;;;;;;;;;5071801;28;1243;-57
2021/08/19 02:10:01;;;;;;;;;;;;;;;;;;5065139;28;1249;-57
2021/08/19 02:12:26;;;;;;;;;;;;;;;;;;5047498;28;1596;-57
2021/08/19 02:14:51;;;;;;;;;;;;;;;;;;5050417;28;1474;-57
2021/08/19 02:17:17;;;;;;;;;;;;;;;;;;5050807;28;1973;-57
2021/08/19 02:19:42;;;;;;;;;;;;;;;;;;5050622;28;1245;-57
2021/08/19 02:22:07;;;;;;;;;;;;;;;;;;5052238;28;1578;-57
2021/08/19 02:24:32;;;;;;;;;;;;;;;;;;5051539;28;1287;-57
2021/08/19 02:26:57;;;;;;;;;;;;;;;;;;5051634;28;1277;-58
2021/08/19 02:29:22;;;;;;;;;;;;;;;;;;5048960;28;1576;-57
2021/08/19 02:31:49;;;;;;;;;;;;;;;;;;5048531;28;1189;-57
2021/08/19 02:34:14;;;;;;;;;;;;;;;;;;5050247;28;1843;-58
2021/08/19 02:36:40;;;;;;;;;;;;;;;;;;5048841;28;1948;-58
2021/08/19 02:39:05;;;;;;;;;;;;;;;;;;5050961;28;1125;-58
2021/08/19 02:41:30;;;;;;;;;;;;;;;;;;5051132;28;1318;-58
2021/08/19 02:43:55;;;;;;;;;;;;;;;;;;5050413;28;1717;-57
2021/08/19 02:46:20;;;;;;;;;;;;;;;;;;5049661;28;1181;-56
2021/08/19 02:48:46;;;;;;;;;;;;;;;;;;5045287;28;1641;-58
2021/08/19 02:51:11;;;;;;;;;;;;;;;;;;5048455;28;1220;-58
2021/08/19 02:53:36;;;;;;;;;;;;;;;;;;5048068;28;1332;-57
2021/08/19 02:56:02;;;;;;;;;;;;;;;;;;5045848;28;1604;-57
2021/08/19 02:58:27;;;;;;;;;;;;;;;;;;5047021;28;1922;-57
2021/08/19 03:00:52;;;;;;;;;;;;;;;;;;5048713;28;1412;-57
2021/08/19 03:03:18;;;;;;;;;;;;;;;;;;5049745;28;1169;-57
2021/08/19 03:05:43;;;;;;;;;;;;;;;;;;5049133;28;1564;-57
2021/08/19 03:08:08;;;;;;;;;;;;;;;;;;5049427;28;1081;-58
2021/08/19 03:10:33;;;;;;;;;;;;;;;;;;5049279;28;1342;-57
2021/08/19 03:12:58;;;;;;;;;;;;;;;;;;5050027;28;1588;-58
2021/08/19 03:15:23;;;;;;;;;;;;;;;;;;5049333;28;1271;-57
2021/08/19 03:17:49;;;;;;;;;;;;;;;;;;5048601;28;1902;-57
2021/08/19 03:20:14;;;;;;;;;;;;;;;;;;5049074;28;1411;-58
2021/08/19 03:22:39;;;;;;;;;;;;;;;;;;5047529;28;1654;-57
2021/08/19 03:25:07;;;;;;;;;;;;;;;;;;5049201;28;1220;-57
2021/08/19 03:27:32;;;;;;;;;;;;;;;;;;5047524;28;1572;-57
2021/08/19 03:29:57;;;;;;;;;;;;;;;;;;5048477;28;1360;-57
2021/08/19 03:32:23;;;;;;;;;;;;;;;;;;5044872;28;2100;-57
2021/08/19 03:34:48;;;;;;;;;;;;;;;;;;5049788;28;1181;-57
2021/08/19 03:37:13;;;;;;;;;;;;;;;;;;5047675;28;1965;-57
2021/08/19 03:39:38;;;;;;;;;;;;;;;;;;5047185;28;1696;-57
2021/08/19 03:42:04;;;;;;;;;;;;;;;;;;5046420;28;1549;-56
2021/08/19 03:44:29;;;;;;;;;;;;;;;;;;5050653;28;1290;-57
2021/08/19 03:46:54;;;;;;;;;;;;;;;;;;5049312;28;1165;-57
2021/08/19 03:49:19;;;;;;;;;;;;;;;;;;5048795;28;1204;-55
2021/08/19 03:51:44;;;;;;;;;;;;;;;;;;5049232;28;1697;-57
2021/08/19 03:54:10;;;;;;;;;;;;;;;;;;5045984;28;1514;-57
2021/08/19 03:56:39;;;;;;;;;;;;;;;;;;5047165;28;1910;-57
2021/08/19 03:59:04;;;;;;;;;;;;;;;;;;5042146;28;1470;-58
2021/08/19 04:01:29;;;;;;;;;;;;;;;;;;5046617;28;1214;-57
2021/08/19 04:03:55;;;;;;;;;;;;;;;;;;5047045;28;1307;-57
2021/08/19 04:06:20;;;;;;;;;;;;;;;;;;5048171;28;1074;-57
2021/08/19 04:08:45;;;;;;;;;;;;;;;;;;5047908;28;1619;-57
2021/08/19 04:11:10;;;;;;;;;;;;;;;;;;5048538;28;1337;-58
2021/08/19 04:13:35;;;;;;;;;;;;;;;;;;5048533;28;1604;-57
2021/08/19 04:16:01;;;;;;;;;;;;;;;;;;5045292;28;1792;-58
2021/08/19 04:18:26;;;;;;;;;;;;;;;;;;5048271;28;1970;-58
2021/08/19 04:20:51;;;;;;;;;;;;;;;;;;5048854;28;1260;-57
2021/08/19 04:23:16;;;;;;;;;;;;;;;;;;5048714;28;1409;-57
2021/08/19 04:25:41;;;;;;;;;;;;;;;;;;5048283;28;1579;-57
2021/08/19 04:28:07;;;;;;;;;;;;;;;;;;5047564;28;1619;-58
2021/08/19 04:30:32;;;;;;;;;;;;;;;;;;5047912;28;1285;-57
2021/08/19 04:32:57;;;;;;;;;;;;;;;;;;5049150;28;1169;-58
2021/08/19 04:35:24;;;;;;;;;;;;;;;;;;5046669;28;1745;-57
2021/08/19 04:37:50;;;;;;;;;;;;;;;;;;5046586;28;2000;-58
2021/08/19 04:40:15;;;;;;;;;;;;;;;;;;5048195;28;1361;-57
2021/08/19 04:42:40;;;;;;;;;;;;;;;;;;5047709;28;1532;-57
2021/08/19 04:45:05;;;;;;;;;;;;;;;;;;5042345;28;1711;-57
2021/08/19 04:47:30;;;;;;;;;;;;;;;;;;5048728;28;1297;-57
2021/08/19 04:49:56;;;;;;;;;;;;;;;;;;5046161;28;1282;-57
2021/08/19 04:52:21;;;;;;;;;;;;;;;;;;5048319;28;1105;-57
2021/08/19 04:54:46;;;;;;;;;;;;;;;;;;5045884;28;1710;-58
2021/08/19 04:57:11;;;;;;;;;;;;;;;;;;5045016;28;1910;-57
2021/08/19 04:59:36;;;;;;;;;;;;;;;;;;5048492;28;1254;-57
2021/08/19 05:02:02;;;;;;;;;;;;;;;;;;5049524;28;1537;-58
2021/08/19 05:04:27;;;;;;;;;;;;;;;;;;5048359;28;1184;-57
2021/08/19 05:06:52;;;;;;;;;;;;;;;;;;5045031;28;1690;-57
2021/08/19 05:09:17;;;;;;;;;;;;;;;;;;5047765;28;1193;-57
2021/08/19 05:11:42;;;;;;;;;;;;;;;;;;5046704;28;1400;-58
2021/08/19 05:14:07;;;;;;;;;;;;;;;;;;5046869;28;1568;-58
2021/08/19 05:16:33;;;;;;;;;;;;;;;;;;5045744;28;1910;-58
2021/08/19 05:18:58;;;;;;;;;;;;;;;;;;5046698;28;1165;-57
2021/08/19 05:21:23;;;;;;;;;;;;;;;;;;5047677;28;1655;-57
2021/08/19 05:23:48;;;;;;;;;;;;;;;;;;5052621;28;1293;-56
2021/08/19 05:26:13;;;;;;;;;;;;;;;;;;5051468;28;1172;-56
2021/08/19 05:28:39;;;;;;;;;;;;;;;;;;5048001;28;1626;-58
2021/08/19 05:31:04;;;;;;;;;;;;;;;;;;5051248;28;1285;-57
2021/08/19 05:33:29;;;;;;;;;;;;;;;;;;5051868;28;1256;-57
2021/08/19 05:35:54;;;;;;;;;;;;;;;;;;5018662;28;1284;-57
2021/08/19 05:38:19;;;;;;;;;;;;;;;;;;5049421;28;1902;-57
2021/08/19 05:40:45;;;;;;;;;;;;;;;;;;5051212;28;1228;-56
2021/08/19 05:43:10;;;;;;;;;;;;;;;;;;5048859;28;1517;-57
2021/08/19 05:45:35;;;;;;;;;;;;;;;;;;5051073;28;1121;-57
2021/08/19 05:48:03;;;;;;;;;;;;;;;;;;5051764;28;1184;-57
2021/08/19 05:50:28;;;;;;;;;;;;;;;;;;5051760;28;1698;-57
2021/08/19 05:52:53;;;;;;;;;;;;;;;;;;5047336;28;1722;-57
2021/08/19 05:55:19;;;;;;;;;;;;;;;;;;5052053;28;1339;-57
2021/08/19 05:57:45;;;;;;;;;;;;;;;;;;5047316;28;1902;-57
2021/08/19 06:00:10;;;;;;;;;;;;;;;;;;5051096;28;1339;-57
2021/08/19 06:02:35;;;;;;;;;;;;;;;;;;5051611;28;1471;-56
2021/08/19 06:05:01;;;;;;;;;;;;;;;;;;5047009;28;1608;-57
2021/08/19 06:07:26;;;;;;;;;;;;;;;;;;5050566;28;1360;-57
2021/08/19 06:09:51;;;;;;;;;;;;;;;;;;5050727;28;1371;-57
2021/08/19 06:12:16;;;;;;;;;;;;;;;;;;5050799;28;1644;-58
2021/08/19 06:14:41;;;;;;;;;;;;;;;;;;5052741;28;1204;-57
2021/08/19 06:17:07;;;;;;;;;;;;;;;;;;5047946;28;1906;-57
2021/08/19 06:19:32;;;;;;;;;;;;;;;;;;5050433;28;1248;-57
2021/08/19 06:21:57;;;;;;;;;;;;;;;;;;5049082;28;1576;-57
2021/08/19 06:24:22;;;;;;;;;;;;;;;;;;5047416;28;1138;-57
2021/08/19 06:26:47;;;;;;;;;;;;;;;;;;5050538;28;1122;-58
2021/08/19 06:29:13;;;;;;;;;;;;;;;;;;5047731;28;1607;-57
2021/08/19 06:31:38;;;;;;;;;;;;;;;;;;5048468;28;1182;-57
2021/08/19 06:34:03;;;;;;;;;;;;;;;;;;5050322;28;1372;-57
2021/08/19 06:36:28;;;;;;;;;;;;;;;;;;5050258;28;2120;-57
2021/08/19 06:38:53;;;;;;;;;;;;;;;;;;5049442;28;1902;-57
2021/08/19 06:41:19;;;;;;;;;;;;;;;;;;5051700;28;1385;-57
2021/08/19 06:43:44;;;;;;;;;;;;;;;;;;5044920;28;1654;-57
2021/08/19 06:46:09;;;;;;;;;;;;;;;;;;5049269;28;1125;-57
2021/08/19 06:48:35;;;;;;;;;;;;;;;;;;5049230;28;1378;-57
2021/08/19 06:51:00;;;;;;;;;;;;;;;;;;5045514;28;1654;-56
2021/08/19 06:53:25;;;;;;;;;;;;;;;;;;5047038;28;1027;-57
2021/08/19 06:55:50;;;;;;;;;;;;;;;;;;5047748;28;1043;-57
2021/08/19 06:58:15;;;;;;;;;;;;;;;;;;5047411;28;1902;-57
2021/08/19 07:00:40;;;;;;;;;;;;;;;;;;5048746;28;1369;-57
2021/08/19 07:03:06;;;;;;;;;;;;;;;;;;5048396;28;994;-57
2021/08/19 07:05:31;;;;;;;;;;;;;;;;;;5048281;28;1299;-57
2021/08/19 07:07:59;;;;;;;;;;;;;;;;;;5050201;28;1652;-56
2021/08/19 07:10:24;;;;;;;;;;;;;;;;;;5051026;28;1339;-57
2021/08/19 07:12:49;;;;;;;;;;;;;;;;;;5047302;28;1572;-57
2021/08/19 07:15:14;;;;;;;;;;;;;;;;;;5050919;28;1149;-57
2021/08/19 07:17:40;;;;;;;;;;;;;;;;;;5049490;28;1882;-57
2021/08/19 07:20:05;;;;;;;;;;;;;;;;;;5047797;28;1256;-56
2021/08/19 07:22:31;;;;;;;;;;;;;;;;;;5049729;28;1564;-57
2021/08/19 07:24:56;;;;;;;;;;;;;;;;;;5048450;28;1437;-57
2021/08/19 07:27:21;;;;;;;;;;;;;;;;;;5048539;28;1591;-57
2021/08/19 07:29:46;;;;;;;;;;;;;;;;;;5050189;28;1404;-57
2021/08/19 07:32:11;;;;;;;;;;;;;;;;;;5050733;28;1173;-57
2021/08/19 07:34:36;;;;;;;;;;;;;;;;;;5050222;28;1169;-56
2021/08/19 07:37:02;;;;;;;;;;;;;;;;;;5048179;28;1898;-57
2021/08/19 07:39:27;;;;;;;;;;;;;;;;;;5048429;28;1366;-56
2021/08/19 07:41:52;;;;;;;;;;;;;;;;;;5048230;28;1587;-56
2021/08/19 07:44:17;;;;;;;;;;;;;;;;;;5043458;28;1542;-57
2021/08/19 07:46:43;;;;;;;;;;;;;;;;;;5048354;28;1169;-57
2021/08/19 07:49:08;;;;;;;;;;;;;;;;;;5047673;28;1172;-56
2021/08/19 07:51:36;;;;;;;;;;;;;;;;;;5046968;28;1603;-57
2021/08/19 07:54:01;;;;;;;;;;;;;;;;;;5048782;28;1424;-57
2021/08/19 07:56:26;;;;;;;;;;;;;;;;;;5049873;28;1196;-57
2021/08/19 07:58:52;;;;;;;;;;;;;;;;;;5048835;28;1902;-56
2021/08/19 08:01:17;;;;;;;;;;;;;;;;;;5028273;28;1436;-57
2021/08/19 08:03:42;;;;;;;;;;;;;;;;;;5048318;28;1113;-56
2021/08/19 08:06:07;;;;;;;;;;;;;;;;;;5045151;28;1680;-57
2021/08/19 08:08:32;;;;;;;;;;;;;;;;;;5048289;28;1235;-56
2021/08/19 08:10:58;;;;;;;;;;;;;;;;;;5049149;28;1276;-57
2021/08/19 08:13:23;;;;;;;;;;;;;;;;;;5045815;28;1596;-57
2021/08/19 08:15:48;;;;;;;;;;;;;;;;;;5047854;28;1136;-56
2021/08/19 08:18:15;;;;;;;;;;;;;;;;;;5048103;28;1910;-57
2021/08/19 08:20:40;;;;;;;;;;;;;;;;;;5049909;28;1250;-57
2021/08/19 08:23:05;;;;;;;;;;;;;;;;;;5047111;28;1603;-56
2021/08/19 08:25:30;;;;;;;;;;;;;;;;;;5048059;28;1239;-57
2021/08/19 08:28:09;;;;;;;;;;;;;;;;;;5047468;28;1619;-57
2021/08/19 08:30:35;;;;;;;;;;;;;;;;;;5048178;28;1277;-56
2021/08/19 08:33:00;;;;;;;;;;;;;;;;;;5047577;28;1114;-57
2021/08/19 08:35:26;;;;;;;;;;;;;;;;;;5049465;28;1244;-58
2021/08/19 08:37:51;;;;;;;;;;;;;;;;;;5046461;28;1894;-56
2021/08/19 08:40:17;;;;;;;;;;;;;;;;;;5046007;28;1603;-57
2021/08/19 08:42:43;;;;;;;;;;;;;;;;;;5047552;28;1739;-56
2021/08/19 08:45:08;;;;;;;;;;;;;;;;;;5047453;28;1532;-56
2021/08/19 08:47:34;;;;;;;;;;;;;;;;;;5047991;28;1181;-57
2021/08/19 08:49:59;;;;;;;;;;;;;;;;;;5047053;28;1577;-57
2021/08/19 08:52:24;;;;;;;;;;;;;;;;;;5049260;28;1133;-56
2021/08/19 08:54:51;;;;;;;;;;;;;;;;;;5030590;28;1244;-58
2021/08/19 08:57:16;;;;;;;;;;;;;;;;;;5048750;28;1961;-57
2021/08/19 08:59:41;;;;;;;;;;;;;;;;;;5030927;28;1491;-57
2021/08/19 09:02:07;;;;;;;;;;;;;;;;;;5046633;28;1556;-56
2021/08/19 09:04:32;;;;;;;;;;;;;;;;;;5049543;28;1425;-57
2021/08/19 09:06:58;;;;;;;;;;;;;;;;;;5052483;28;1216;-58
2021/08/19 09:09:25;;;;;;;;;;;;;;;;;;5056698;22;3750;-55
2021/08/19 09:11:54;;;;;;;;;;;;;;;;;;5103545;28;1096;-55
2021/08/19 09:14:20;;;;;;;;;;;;;;;;;;5101637;28;1592;-53
2021/08/19 09:16:47;;;;;;;;;;;;;;;;;;5104262;28;1973;-55
2021/08/19 09:19:12;;;;;;;;;;;;;;;;;;5107300;27;1233;-58
2021/08/19 09:21:44;;;;;;;;;;;;;;;;;;5078324;28;1602;-56
2021/08/19 09:24:10;;;;;;;;;;;;;;;;;;5084048;28;1216;-57
2021/08/19 09:26:35;;;;;;;;;;;;;;;;;;5080695;28;1136;-56
2021/08/19 09:29:12;;;;;;;;;;;;;;;;;;5079981;28;1514;-55
2021/08/19 09:31:37;;;;;;;;;;;;;;;;;;5080928;28;1021;-56
2021/08/19 09:34:03;;;;;;;;;;;;;;;;;;5081933;28;1123;-55
2021/08/19 09:36:28;;;;;;;;;;;;;;;;;;5080349;28;1579;-56
2021/08/19 09:38:53;;;;;;;;;;;;;;;;;;5080378;28;1918;-57
2021/08/19 09:41:18;;;;;;;;;;;;;;;;;;5080462;28;1216;-56
2021/08/19 09:43:50;;;;;;;;;;;;;;;;;;5080974;28;1581;-56
2021/08/19 09:46:16;;;;;;;;;;;;;;;;;;5080178;28;1169;-56
2021/08/19 09:48:42;;;;;;;;;;;;;;;;;;5079126;28;1365;-54
2021/08/19 09:51:10;;;;;;;;;;;;;;;;;;5080897;28;1393;-55
2021/08/19 09:53:40;;;;;;;;;;;;;;;;;;5079104;28;1565;-55
2021/08/19 09:56:06;;;;;;;;;;;;;;;;;;5080278;28;1044;-56
2021/08/19 09:58:32;;;;;;;;;;;;;;;;;;5081254;28;1906;-55
2021/08/19 10:00:57;;;;;;;;;;;;;;;;;;5080378;28;1597;-55
2021/08/19 10:03:23;;;;;;;;;;;;;;;;;;5078515;28;1164;-54
2021/08/19 10:05:48;;;;;;;;;;;;;;;;;;5080399;28;1100;-55
2021/08/19 10:08:13;;;;;;;;;;;;;;;;;;5082736;28;1558;-55
2021/08/19 10:10:38;;;;;;;;;;;;;;;;;;5079560;28;1367;-55
2021/08/19 10:13:04;;;;;;;;;;;;;;;;;;5076802;28;1592;-55
2021/08/19 10:15:30;;;;;;;;;;;;;;;;;;5080295;28;1123;-56
2021/08/19 10:17:56;;;;;;;;;;;;;;;;;;5078468;28;1975;-55
2021/08/19 10:20:26;;;;;;;;;;;;;;;;;;5078967;28;1323;-55
2021/08/19 10:22:51;;;;;;;;;;;;;;;;;;5075912;28;1574;-56
2021/08/19 10:25:17;;;;;;;;;;;;;;;;;;5078606;28;1600;-56
2021/08/19 10:27:42;;;;;;;;;;;;;;;;;;5077954;28;1637;-56
2021/08/19 10:30:08;;;;;;;;;;;;;;;;;;5078842;28;1394;-55
2021/08/19 10:32:34;;;;;;;;;;;;;;;;;;5078116;28;1167;-55
2021/08/19 10:35:06;;;;;;;;;;;;;;;;;;5081272;28;1238;-55
2021/08/19 10:37:46;;;;;;;;;;;;;;;;;;5077565;28;2029;-56
2021/08/19 10:40:24;;;;;;;;;;;;;;;;;;5079864;28;1319;-53
2021/08/19 10:42:53;;;;;;;;;;;;;;;;;;5079030;28;2121;-55
2021/08/19 10:45:27;;;;;;;;;;;;;;;;;;5079241;28;1313;-55
2021/08/19 10:48:02;;;;;;;;;;;;;;;;;;5081351;28;1640;-55
2021/08/19 10:50:31;;;;;;;;;;;;;;;;;;5082455;28;1530;-55
2021/08/19 10:52:58;;;;;;;;;;;;;;;;;;5082247;28;1181;-55
2021/08/19 10:55:23;;;;;;;;;;;;;;;;;;5080038;28;1577;-56
2021/08/19 10:57:52;;;;;;;;;;;;;;;;;;5082170;28;1910;-55
2021/08/19 11:00:17;;;;;;;;;;;;;;;;;;5081160;28;1239;-56
2021/08/19 11:02:46;;;;;;;;;;;;;;;;;;5079631;28;1272;-55
2021/08/19 11:05:21;;;;;;;;;;;;;;;;;;5076747;28;1570;-55
2021/08/19 11:07:52;;;;;;;;;;;;;;;;;;5080675;28;1156;-55
2021/08/19 11:10:18;;;;;;;;;;;;;;;;;;5081444;28;1343;-55
2021/08/19 11:12:43;;;;;;;;;;;;;;;;;;5081931;28;1633;-55
2021/08/19 11:15:11;;;;;;;;;;;;;;;;;;5081800;28;1767;-56
2021/08/19 11:17:37;;;;;;;;;;;;;;;;;;5015897;28;1909;-55
2021/08/19 11:20:21;;;;;;;;;;;;;;;;;;5079997;28;1333;-56
2021/08/19 11:23:05;;;;;;;;;;;;;;;;;;5079744;28;1664;-55
2021/08/19 11:25:30;;;;;;;;;;;;;;;;;;5079672;28;1123;-55
2021/08/19 11:28:03;;;;;;;;;;;;;;;;;;5077936;28;1620;-56
2021/08/19 11:30:32;;;;;;;;;;;;;;;;;;5077475;28;2052;-55
2021/08/19 11:33:17;;;;;;;;;;;;;;;;;;5080694;28;1235;-56
2021/08/19 11:35:52;;;;;;;;;;;;;;;;;;5079392;28;1562;-55
2021/08/19 11:38:18;;;;;;;;;;;;;;;;;;5080024;28;1902;-55
2021/08/19 11:40:45;;;;;;;;;;;;;;;;;;5080680;28;1269;-55
2021/08/19 11:43:23;;;;;;;;;;;;;;;;;;5080404;28;1555;-56
2021/08/19 11:45:49;;;;;;;;;;;;;;;;;;5077710;28;1180;-55
2021/08/19 11:48:17;;;;;;;;;;;;;;;;;;5081271;28;1065;-55
2021/08/19 11:50:42;;;;;;;;;;;;;;;;;;5078529;28;1213;-55
2021/08/19 11:53:07;;;;;;;;;;;;;;;;;;5081623;28;1558;-55
2021/08/19 11:55:32;;;;;;;;;;;;;;;;;;5080123;28;1116;-55
2021/08/19 11:58:16;;;;;;;;;;;;;;;;;;5078670;28;1993;-53
2021/08/19 12:00:54;;;;;;;;;;;;;;;;;;5080306;28;1276;-55
2021/08/19 12:03:19;;;;;;;;;;;;;;;;;;5099695;28;1140;-56
2021/08/19 12:05:44;;;;;;;;;;;;;;;;;;5079664;28;1578;-56
2021/08/19 12:08:09;;;;;;;;;;;;;;;;;;5079995;28;1112;-55
2021/08/19 12:10:35;;;;;;;;;;;;;;;;;;5076363;28;1347;-53
2021/08/19 12:13:00;;;;;;;;;;;;;;;;;;5078032;28;1617;-56
2021/08/19 12:15:25;;;;;;;;;;;;;;;;;;5078379;28;1426;-56
2021/08/19 12:18:06;;;;;;;;;;;;;;;;;;5078321;28;1969;-55
2021/08/19 12:20:31;;;;;;;;;;;;;;;;;;5078225;28;1365;-55
2021/08/19 12:23:13;;;;;;;;;;;;;;;;;;5081338;28;1641;-54
2021/08/19 12:25:38;;;;;;;;;;;;;;;;;;5080182;28;1168;-55
2021/08/19 12:28:06;;;;;;;;;;;;;;;;;;5077641;28;1571;-54
2021/08/19 12:30:31;;;;;;;;;;;;;;;;;;5078963;28;1322;-55
2021/08/19 12:33:01;;;;;;;;;;;;;;;;;;5077891;28;990;-54
2021/08/19 12:35:26;;;;;;;;;;;;;;;;;;5079422;28;1528;-55
2021/08/19 12:37:52;;;;;;;;;;;;;;;;;;5079884;28;1955;-54
2021/08/19 12:40:17;;;;;;;;;;;;;;;;;;5081208;28;1343;-55
2021/08/19 12:42:43;;;;;;;;;;;;;;;;;;5076906;28;1586;-54
2021/08/19 12:45:21;;;;;;;;;;;;;;;;;;5077490;28;1170;-55
2021/08/19 12:47:47;;;;;;;;;;;;;;;;;;5077828;28;1349;-55
2021/08/19 12:50:19;;;;;;;;;;;;;;;;;;5078511;28;1370;-55
2021/08/19 12:52:46;;;;;;;;;;;;;;;;;;5076634;28;2095;-55
2021/08/19 12:55:22;;;;;;;;;;;;;;;;;;5078079;28;1361;-55
2021/08/19 12:57:47;;;;;;;;;;;;;;;;;;5077483;28;1969;-55
2021/08/19 13:00:13;;;;;;;;;;;;;;;;;;5077066;28;1270;-54
2021/08/19 13:02:38;;;;;;;;;;;;;;;;;;5077914;28;1285;-55
2021/08/19 13:05:03;;;;;;;;;;;;;;;;;;5076037;28;1566;-56
2021/08/19 13:07:29;;;;;;;;;;;;;;;;;;5076999;28;1049;-54
2021/08/19 13:09:54;;;;;;;;;;;;;;;;;;5078064;28;1409;-55
2021/08/19 13:12:21;;;;;;;;;;;;;;;;;;5074645;28;1598;-55
2021/08/19 13:14:47;;;;;;;;;;;;;;;;;;5072922;28;1112;-55
2021/08/19 13:17:12;;;;;;;;;;;;;;;;;;5086410;28;1905;-53
2021/08/19 13:19:37;;;;;;;;;;;;;;;;;;5076733;28;1320;-55
2021/08/19 13:22:03;;;;;;;;;;;;;;;;;;5075497;28;1594;-55
2021/08/19 13:24:28;;;;;;;;;;;;;;;;;;5076609;28;1155;-55
2021/08/19 13:26:55;;;;;;;;;;;;;;;;;;5076408;28;1622;-55
2021/08/19 13:29:20;;;;;;;;;;;;;;;;;;5076203;28;1570;-53
2021/08/19 13:31:45;;;;;;;;;;;;;;;;;;5072677;28;1071;-55
2021/08/19 13:34:10;;;;;;;;;;;;;;;;;;5075883;28;1378;-55
2021/08/19 13:36:36;;;;;;;;;;;;;;;;;;5078143;28;1571;-55
2021/08/19 13:39:01;;;;;;;;;;;;;;;;;;5077038;28;1969;-54
2021/08/19 13:41:27;;;;;;;;;;;;;;;;;;5076845;28;1261;-55
2021/08/19 13:43:52;;;;;;;;;;;;;;;;;;5079795;28;1543;-55
2021/08/19 13:46:17;;;;;;;;;;;;;;;;;;5090911;28;1300;-55
2021/08/19 13:48:42;;;;;;;;;;;;;;;;;;5083797;28;1095;-55
2021/08/19 13:51:07;;;;;;;;;;;;;;;;;;5080198;28;1582;-55
2021/08/19 13:53:33;;;;;;;;;;;;;;;;;;5080020;28;1151;-56
2021/08/19 13:55:58;;;;;;;;;;;;;;;;;;5079711;28;1009;-55
2021/08/19 13:58:23;;;;;;;;;;;;;;;;;;5079652;28;1909;-54
2021/08/19 14:00:48;;;;;;;;;;;;;;;;;;5079468;28;1287;-55
2021/08/19 14:03:15;;;;;;;;;;;;;;;;;;5079359;28;1104;-55
2021/08/19 14:05:40;;;;;;;;;;;;;;;;;;5081546;28;1566;-55
2021/08/19 14:08:05;;;;;;;;;;;;;;;;;;5087891;28;1230;-55
2021/08/19 14:10:31;;;;;;;;;;;;;;;;;;5089260;28;1262;-55
2021/08/19 14:12:56;;;;;;;;;;;;;;;;;;5077411;28;1701;-54
2021/08/19 14:15:21;;;;;;;;;;;;;;;;;;5080422;28;1343;-55
2021/08/19 14:17:46;;;;;;;;;;;;;;;;;;5080305;28;1915;-55
2021/08/19 14:20:11;;;;;;;;;;;;;;;;;;5084172;28;1643;-54
2021/08/19 14:22:37;;;;;;;;;;;;;;;;;;5080343;28;1095;-55
2021/08/19 14:25:02;;;;;;;;;;;;;;;;;;5077313;28;1496;-53
2021/08/19 14:27:27;;;;;;;;;;;;;;;;;;5080122;28;1665;-54
2021/08/19 14:29:52;;;;;;;;;;;;;;;;;;5078461;28;1520;-55
2021/08/19 14:32:18;;;;;;;;;;;;;;;;;;5079019;28;1179;-55
2021/08/19 14:34:43;;;;;;;;;;;;;;;;;;5080995;28;1124;-55
2021/08/19 14:37:10;;;;;;;;;;;;;;;;;;5086617;28;1968;-55
2021/08/19 14:39:35;;;;;;;;;;;;;;;;;;5074262;28;1493;-55
2021/08/19 14:42:00;;;;;;;;;;;;;;;;;;5079540;28;1057;-55
2021/08/19 14:44:26;;;;;;;;;;;;;;;;;;5078783;28;1737;-55
2021/08/19 14:46:51;;;;;;;;;;;;;;;;;;5080062;28;1116;-55
2021/08/19 14:49:16;;;;;;;;;;;;;;;;;;5078480;28;1381;-55
2021/08/19 14:51:41;;;;;;;;;;;;;;;;;;5079000;28;1587;-55
2021/08/19 14:54:07;;;;;;;;;;;;;;;;;;5078688;28;1497;-55
2021/08/19 14:56:33;;;;;;;;;;;;;;;;;;5069052;28;1080;-55
2021/08/19 14:58:58;;;;;;;;;;;;;;;;;;5067951;28;2014;-54
2021/08/19 15:01:24;;;;;;;;;;;;;;;;;;5071747;28;1721;-54
2021/08/19 15:03:49;;;;;;;;;;;;;;;;;;5074766;28;961;-55
2021/08/19 15:06:14;;;;;;;;;;;;;;;;;;5077893;28;1621;-55
2021/08/19 15:08:39;;;;;;;;;;;;;;;;;;5082800;28;1199;-55
2021/08/19 15:11:04;;;;;;;;;;;;;;;;;;5075843;28;1784;-55
2021/08/19 15:13:30;;;;;;;;;;;;;;;;;;5080207;28;1479;-55
2021/08/19 15:15:55;;;;;;;;;;;;;;;;;;5078206;28;1111;-55
2021/08/19 15:18:28;;;;;;;;;;;;;;;;;;5087358;28;1976;-55
2021/08/19 15:20:53;;;;;;;;;;;;;;;;;;5084365;28;1652;-57
2021/08/19 15:23:18;;;;;;;;;;;;;;;;;;5078446;28;1249;-56
2021/08/19 15:25:44;;;;;;;;;;;;;;;;;;5073125;28;1558;-56
2021/08/19 15:28:09;;;;;;;;;;;;;;;;;;5082456;28;1621;-55
2021/08/19 15:30:34;;;;;;;;;;;;;;;;;;5076424;28;1334;-56
2021/08/19 15:32:59;;;;;;;;;;;;;;;;;;5085417;28;1375;-56
2021/08/19 15:35:24;;;;;;;;;;;;;;;;;;5080201;28;1033;-55
2021/08/19 15:37:50;;;;;;;;;;;;;;;;;;5085011;28;1915;-56
2021/08/19 15:40:15;;;;;;;;;;;;;;;;;;5077534;28;1508;-56
2021/08/19 15:42:40;;;;;;;;;;;;;;;;;;5075870;28;1547;-55
2021/08/19 15:45:05;;;;;;;;;;;;;;;;;;5062851;28;1495;-55
2021/08/19 15:47:30;;;;;;;;;;;;;;;;;;5085013;28;1278;-54
2021/08/19 15:50:00;;;;;;;;;;;;;;;;;;5087765;28;1155;-56
2021/08/19 15:52:25;;;;;;;;;;;;;;;;;;5079293;28;1364;-56
2021/08/19 15:57:18;;;;;;;;;;;;;;;;;;5135148;27;1984;-56
2021/08/19 15:59:43;;;;;;;;;;;;;;;;;;5138479;27;1537;-56
2021/08/19 16:02:08;;;;;;;;;;;;;;;;;;5141264;27;1759;-56
2021/08/19 16:04:33;;;;;;;;;;;;;;;;;;5141687;27;1392;-56
2021/08/19 16:06:59;;;;;;;;;;;;;;;;;;5140623;27;1178;-56
2021/08/19 16:09:24;;;;;;;;;;;;;;;;;;5138452;27;1547;-56
2021/08/19 16:11:50;;;;;;;;;;;;;;;;;;5137367;27;1384;-56
2021/08/19 16:14:15;;;;;;;;;;;;;;;;;;5139099;27;1551;-56
2021/08/19 16:16:40;;;;;;;;;;;;;;;;;;5137830;27;1526;-56
2021/08/19 16:19:06;;;;;;;;;;;;;;;;;;5140341;27;1898;-56
2021/08/19 16:21:31;;;;;;;;;;;;;;;;;;5136683;27;1621;-56
2021/08/19 16:23:56;;;;;;;;;;;;;;;;;;5140545;27;1275;-55
2021/08/19 16:26:21;;;;;;;;;;;;;;;;;;5137959;27;1215;-56
2021/08/19 16:28:47;;;;;;;;;;;;;;;;;;5138208;27;1495;-56
2021/08/19 16:31:12;;;;;;;;;;;;;;;;;;5118604;27;1650;-56
2021/08/19 16:33:37;;;;;;;;;;;;;;;;;;5140779;27;1365;-56
2021/08/19 16:36:02;;;;;;;;;;;;;;;;;;5140121;27;1135;-56
2021/08/19 16:38:28;;;;;;;;;;;;;;;;;;5139645;27;1967;-56
2021/08/19 16:40:53;;;;;;;;;;;;;;;;;;5138062;27;1487;-57
2021/08/19 16:43:18;;;;;;;;;;;;;;;;;;5135824;27;1583;-56
2021/08/19 16:45:44;;;;;;;;;;;;;;;;;;5136331;27;1353;-56
2021/08/19 16:48:09;;;;;;;;;;;;;;;;;;5125232;27;1563;-56
2021/08/19 16:50:34;;;;;;;;;;;;;;;;;;5124184;28;1733;-56
2021/08/19 16:52:59;;;;;;;;;;;;;;;;;;5130379;28;1062;-56
2021/08/19 16:55:24;;;;;;;;;;;;;;;;;;5127375;27;1583;-56
2021/08/19 16:57:49;;;;;;;;;;;;;;;;;;5124753;28;1905;-56